Time;durP1;ratioP1;P1;durP2;ratioP2;P2;SDS_P1;SDS_P2;PMS_P1;PMS_P2;Temp;Humidity;BMP_temperature;BMP_pressure;BME280_temperature;BME280_humidity;BME280_pressure;Samples;Min_cycle;Max_cycle;Signal;HPM_P1;HPM_P2
2021/11/18 00:01:50;;;;;;;8.33;5.40;;;9.30;99.90;;;;;;4988781;28;20256;-74
2021/11/18 00:04:18;;;;;;;9.90;5.47;;;9.20;99.90;;;;;;4974984;28;20575;-74
2021/11/18 00:06:48;;;;;;;9.77;6.87;;;9.20;99.90;;;;;;4974933;28;20213;-74
2021/11/18 00:09:15;;;;;;;9.30;5.30;;;9.20;99.90;;;;;;4975125;28;20240;-75
2021/11/18 00:11:44;;;;;;;7.50;5.67;;;9.20;99.90;;;;;;4975213;28;20217;-73
2021/11/18 00:14:11;;;;;;;8.27;5.67;;;9.30;99.90;;;;;;4974913;28;20206;-75
2021/11/18 00:16:38;;;;;;;13.43;6.20;;;9.30;99.90;;;;;;4975116;28;20274;-75
2021/11/18 00:19:05;;;;;;;8.20;5.20;;;9.20;99.90;;;;;;4975279;28;20218;-75
2021/11/18 00:21:36;;;;;;;8.83;5.93;;;9.30;99.90;;;;;;4974745;28;20621;-75
2021/11/18 00:24:04;;;;;;;9.53;5.60;;;9.30;99.90;;;;;;4975480;28;20236;-74
2021/11/18 00:26:32;;;;;;;10.63;7.23;;;9.30;99.90;;;;;;4975059;28;20209;-75
2021/11/18 00:29:01;;;;;;;14.17;7.27;;;9.40;99.90;;;;;;4974841;28;20241;-75
2021/11/18 00:31:30;;;;;;;9.70;5.77;;;9.30;99.90;;;;;;4974304;28;20276;-75
2021/11/18 00:33:57;;;;;;;11.93;6.30;;;9.30;99.90;;;;;;4979220;28;20263;-75
2021/11/18 00:36:25;;;;;;;10.37;6.20;;;9.40;99.90;;;;;;4983413;28;20205;-75
2021/11/18 00:38:53;;;;;;;8.90;5.77;;;9.40;99.90;;;;;;4974804;28;20269;-75
2021/11/18 00:41:21;;;;;;;11.50;6.47;;;9.30;99.90;;;;;;4974293;28;20210;-74
2021/11/18 00:43:50;;;;;;;12.83;5.93;;;9.30;99.90;;;;;;4974647;28;20673;-75
2021/11/18 00:46:19;;;;;;;10.00;5.80;;;9.40;99.90;;;;;;4973996;28;20273;-76
2021/11/18 00:48:46;;;;;;;7.53;5.33;;;9.40;99.90;;;;;;4974291;28;20410;-77
2021/11/18 00:51:15;;;;;;;10.63;5.87;;;9.30;99.90;;;;;;4974078;28;20292;-78
2021/11/18 00:53:44;;;;;;;9.57;5.00;;;9.30;99.90;;;;;;4974461;28;20221;-78
2021/11/18 00:56:12;;;;;;;7.50;5.43;;;9.30;99.90;;;;;;4940737;28;20245;-80
2021/11/18 00:58:40;;;;;;;9.37;6.57;;;9.40;99.90;;;;;;4973289;28;20208;-80
2021/11/18 01:01:08;;;;;;;8.93;5.33;;;9.40;99.90;;;;;;4974387;28;20672;-78
2021/11/18 01:03:37;;;;;;;9.63;5.53;;;9.40;99.90;;;;;;4975060;28;20337;-79
2021/11/18 01:06:05;;;;;;;10.40;7.00;;;9.30;99.90;;;;;;4974687;28;20249;-79
2021/11/18 01:08:33;;;;;;;10.20;6.47;;;9.30;99.90;;;;;;4974058;28;20229;-77
2021/11/18 01:11:02;;;;;;;13.70;8.13;;;9.30;99.90;;;;;;4974187;28;20210;-80
2021/11/18 01:13:31;;;;;;;12.37;7.30;;;9.40;99.90;;;;;;4973615;28;20213;-76
2021/11/18 01:16:00;;;;;;;9.53;6.93;;;9.40;99.90;;;;;;4974221;28;20767;-75
2021/11/18 01:18:27;;;;;;;11.60;6.77;;;9.40;99.90;;;;;;4973593;28;20292;-75
2021/11/18 01:20:56;;;;;;;9.80;6.07;;;9.30;99.90;;;;;;4973715;28;20613;-75
2021/11/18 01:23:26;;;;;;;9.23;6.10;;;9.40;99.90;;;;;;4973633;28;20210;-75
2021/11/18 01:25:53;;;;;;;7.47;5.20;;;9.40;99.90;;;;;;4973904;28;20264;-76
2021/11/18 01:28:20;;;;;;;9.03;5.50;;;9.40;99.90;;;;;;4973275;28;20233;-76
2021/11/18 01:30:48;;;;;;;9.13;5.57;;;9.40;99.90;;;;;;4974119;28;20206;-75
2021/11/18 01:33:16;;;;;;;11.83;5.30;;;9.30;99.90;;;;;;4973458;28;20213;-75
2021/11/18 01:35:44;;;;;;;9.37;6.00;;;9.30;99.90;;;;;;4973377;28;20638;-75
2021/11/18 01:38:14;;;;;;;9.13;6.43;;;9.30;99.90;;;;;;4973168;28;20264;-74
2021/11/18 01:40:45;;;;;;;8.33;5.73;;;9.50;99.90;;;;;;4973532;28;20618;-75
2021/11/18 01:43:13;;;;;;;8.40;5.70;;;9.40;99.90;;;;;;4973049;28;20577;-75
2021/11/18 01:45:42;;;;;;;9.67;5.67;;;9.40;99.90;;;;;;4973479;28;20206;-75
2021/11/18 01:48:09;;;;;;;8.90;5.20;;;9.40;99.90;;;;;;4972875;28;20251;-74
2021/11/18 01:50:39;;;;;;;8.10;5.13;;;9.40;99.90;;;;;;4972891;28;20214;-75
2021/11/18 01:53:10;;;;;;;10.87;5.60;;;9.40;99.90;;;;;;4973678;28;20708;-74
2021/11/18 01:55:40;;;;;;;9.93;5.87;;;9.50;99.90;;;;;;4984305;28;20580;-74
2021/11/18 01:58:07;;;;;;;10.97;7.13;;;9.50;99.90;;;;;;4978896;28;20209;-74
2021/11/18 02:00:38;;;;;;;8.57;6.40;;;9.50;99.90;;;;;;4983474;28;20252;-75
2021/11/18 02:03:06;;;;;;;9.57;6.50;;;9.50;99.90;;;;;;4973224;28;20205;-75
2021/11/18 02:05:35;;;;;;;10.97;6.37;;;9.50;99.90;;;;;;4973275;28;20217;-75
2021/11/18 02:08:03;;;;;;;7.30;5.10;;;9.50;99.90;;;;;;4973214;28;20238;-75
2021/11/18 02:10:33;;;;;;;7.80;5.33;;;9.50;99.90;;;;;;4972324;28;20626;-75
2021/11/18 02:13:03;;;;;;;7.73;5.83;;;9.40;99.90;;;;;;4973201;28;20217;-75
2021/11/18 02:15:34;;;;;;;7.43;4.97;;;9.40;99.90;;;;;;4960046;28;20210;-76
2021/11/18 02:18:03;;;;;;;7.83;5.33;;;9.40;99.90;;;;;;4972841;28;20212;-75
2021/11/18 02:20:34;;;;;;;6.60;4.43;;;9.30;99.90;;;;;;4972463;28;20268;-75
2021/11/18 02:23:09;;;;;;;6.93;5.03;;;9.30;99.90;;;;;;4973146;28;20213;-74
2021/11/18 02:25:36;;;;;;;5.47;4.67;;;9.30;99.90;;;;;;4972619;28;20205;-74
2021/11/18 02:28:03;;;;;;;10.37;5.47;;;9.30;99.90;;;;;;4973077;28;20284;-74
2021/11/18 02:30:36;;;;;;;6.70;4.60;;;9.40;99.90;;;;;;4972046;28;20209;-74
2021/11/18 02:33:03;;;;;;;9.67;5.70;;;9.40;99.90;;;;;;4971137;28;20671;-72
2021/11/18 02:35:33;;;;;;;7.53;4.97;;;9.40;99.90;;;;;;4972388;28;20216;-73
2021/11/18 02:38:01;;;;;;;13.13;6.10;;;9.40;99.90;;;;;;4973099;28;20213;-73
2021/11/18 02:40:29;;;;;;;7.83;5.37;;;9.40;99.90;;;;;;4972127;28;20213;-75
2021/11/18 02:42:58;;;;;;;8.53;5.10;;;9.40;99.90;;;;;;4972562;28;20250;-75
2021/11/18 02:45:35;;;;;;;9.30;5.90;;;9.40;99.90;;;;;;4972052;28;20634;-75
2021/11/18 02:48:02;;;;;;;5.67;4.47;;;9.40;99.90;;;;;;4972474;28;20233;-74
2021/11/18 02:50:34;;;;;;;11.20;4.57;;;9.40;99.90;;;;;;4971794;28;20577;-73
2021/11/18 02:53:01;;;;;;;8.50;5.23;;;9.30;99.90;;;;;;4972530;28;20212;-75
2021/11/18 02:55:31;;;;;;;6.40;5.27;;;9.40;99.90;;;;;;4971539;28;20673;-70
2021/11/18 02:57:59;;;;;;;7.67;4.73;;;9.40;99.90;;;;;;4972283;28;20209;-69
2021/11/18 03:00:28;;;;;;;6.77;4.47;;;9.40;99.90;;;;;;4971635;28;20629;-69
2021/11/18 03:02:56;;;;;;;10.23;5.43;;;9.40;99.90;;;;;;4971975;28;20677;-69
2021/11/18 03:05:23;;;;;;;8.37;5.20;;;9.40;99.90;;;;;;4971600;28;20277;-69
2021/11/18 03:07:53;;;;;;;5.00;4.13;;;9.40;99.90;;;;;;4971765;28;20213;-72
2021/11/18 03:10:22;;;;;;;7.93;4.67;;;9.50;99.90;;;;;;4971915;28;20213;-72
2021/11/18 03:12:50;;;;;;;9.33;5.33;;;9.40;99.90;;;;;;4972258;28;20260;-72
2021/11/18 03:15:17;;;;;;;8.17;5.93;;;9.50;99.90;;;;;;4971646;28;20677;-72
2021/11/18 03:17:46;;;;;;;7.40;5.03;;;9.50;99.90;;;;;;4971559;28;20213;-72
2021/11/18 03:20:16;;;;;;;9.20;4.90;;;9.40;99.90;;;;;;4970973;28;20210;-72
2021/11/18 03:22:44;;;;;;;10.20;4.83;;;9.40;99.90;;;;;;4971454;28;20260;-72
2021/11/18 03:25:15;;;;;;;10.07;5.23;;;9.40;99.90;;;;;;4971604;28;20275;-72
2021/11/18 03:27:42;;;;;;;6.67;5.33;;;9.40;99.90;;;;;;4971506;28;20221;-72
2021/11/18 03:30:12;;;;;;;7.17;5.03;;;9.40;99.90;;;;;;4971001;28;20304;-71
2021/11/18 03:32:39;;;;;;;8.67;5.30;;;9.40;99.90;;;;;;4971505;28;20689;-71
2021/11/18 03:35:07;;;;;;;6.50;5.53;;;9.40;99.90;;;;;;4971536;28;20669;-72
2021/11/18 03:37:34;;;;;;;8.27;5.10;;;9.30;99.90;;;;;;4971946;28;20213;-71
2021/11/18 03:40:01;;;;;;;11.50;5.97;;;9.30;99.90;;;;;;4971673;28;20213;-71
2021/11/18 03:42:29;;;;;;;7.70;4.63;;;9.40;99.90;;;;;;4971519;28;20219;-72
2021/11/18 03:44:56;;;;;;;7.23;4.63;;;9.40;99.90;;;;;;4971413;28;20214;-71
2021/11/18 03:47:23;;;;;;;7.23;4.80;;;9.40;99.90;;;;;;4971297;28;20563;-71
2021/11/18 03:49:50;;;;;;;7.30;5.73;;;9.30;99.90;;;;;;4971571;28;20236;-71
2021/11/18 03:52:19;;;;;;;9.53;5.53;;;9.30;99.90;;;;;;4971409;28;20209;-71
2021/11/18 03:54:47;;;;;;;7.27;4.47;;;9.30;99.90;;;;;;4971411;28;20287;-72
2021/11/18 03:57:14;;;;;;;6.67;4.43;;;9.30;99.90;;;;;;4971086;28;20264;-71
2021/11/18 03:59:45;;;;;;;6.73;4.87;;;9.40;99.90;;;;;;4971508;28;20223;-69
2021/11/18 04:02:12;;;;;;;7.43;4.77;;;9.40;99.90;;;;;;4970737;28;20261;-69
2021/11/18 04:04:42;;;;;;;8.93;4.87;;;9.30;99.90;;;;;;4971784;28;20209;-69
2021/11/18 04:07:10;;;;;;;8.87;5.10;;;9.30;99.90;;;;;;4970813;28;20264;-69
2021/11/18 04:09:38;;;;;;;7.97;4.70;;;9.30;99.90;;;;;;4971328;28;20688;-71
2021/11/18 04:12:06;;;;;;;6.20;4.20;;;9.30;99.90;;;;;;4971734;28;20624;-71
2021/11/18 04:14:35;;;;;;;9.93;5.00;;;9.30;99.90;;;;;;4971304;28;20205;-70
2021/11/18 04:17:04;;;;;;;8.33;5.03;;;9.30;99.90;;;;;;4971730;28;20244;-70
2021/11/18 04:19:31;;;;;;;8.67;4.90;;;9.30;99.90;;;;;;4971060;28;20729;-70
2021/11/18 04:21:59;;;;;;;5.30;4.30;;;9.40;99.90;;;;;;4971409;28;20206;-70
2021/11/18 04:24:29;;;;;;;6.40;4.53;;;9.40;99.90;;;;;;4971216;28;20209;-71
2021/11/18 04:26:56;;;;;;;7.93;4.93;;;9.40;99.90;;;;;;4971115;28;20736;-71
2021/11/18 04:29:28;;;;;;;8.70;4.03;;;9.30;99.90;;;;;;4970300;28;20226;-70
2021/11/18 04:31:56;;;;;;;4.73;3.43;;;9.40;99.90;;;;;;4972056;28;20253;-70
2021/11/18 04:34:25;;;;;;;8.70;5.20;;;9.40;99.90;;;;;;4974142;28;20563;-71
2021/11/18 04:36:52;;;;;;;8.03;4.27;;;9.30;99.90;;;;;;4974895;28;20264;-69
2021/11/18 04:39:19;;;;;;;9.60;4.63;;;9.40;99.90;;;;;;4974433;28;20259;-68
2021/11/18 04:41:46;;;;;;;7.57;4.30;;;9.30;99.90;;;;;;4974577;28;20205;-69
2021/11/18 04:44:13;;;;;;;7.03;4.73;;;9.30;99.90;;;;;;4974403;28;20276;-70
2021/11/18 04:46:41;;;;;;;7.07;4.07;;;9.30;99.90;;;;;;4974434;28;20206;-69
2021/11/18 04:49:08;;;;;;;6.67;4.60;;;9.40;99.90;;;;;;4974550;28;20217;-69
2021/11/18 04:51:36;;;;;;;7.87;5.37;;;9.40;99.90;;;;;;4974862;28;20209;-69
2021/11/18 04:54:04;;;;;;;8.47;5.43;;;9.40;99.90;;;;;;4974744;28;20217;-69
2021/11/18 04:56:32;;;;;;;6.30;4.63;;;9.40;99.90;;;;;;4974154;28;20333;-69
2021/11/18 04:58:59;;;;;;;8.93;4.93;;;9.40;99.90;;;;;;4974461;28;20264;-70
2021/11/18 05:01:27;;;;;;;7.63;4.23;;;9.40;99.90;;;;;;4974211;28;20217;-70
2021/11/18 05:03:55;;;;;;;6.07;5.03;;;9.50;99.90;;;;;;4974408;28;20217;-70
2021/11/18 05:06:23;;;;;;;7.17;4.13;;;9.40;99.90;;;;;;4973839;28;20217;-71
2021/11/18 05:08:52;;;;;;;6.90;4.07;;;9.30;99.90;;;;;;4969369;28;20709;-70
2021/11/18 05:11:19;;;;;;;7.27;4.27;;;9.30;99.90;;;;;;4973473;28;20264;-70
2021/11/18 05:13:47;;;;;;;5.77;4.47;;;9.40;99.90;;;;;;4973617;28;20221;-70
2021/11/18 05:16:17;;;;;;;7.23;5.40;;;9.30;99.90;;;;;;4972845;28;20272;-71
2021/11/18 05:18:45;;;;;;;6.90;4.73;;;9.40;99.90;;;;;;4971881;28;20209;-70
2021/11/18 05:21:14;;;;;;;10.30;6.37;;;9.40;99.90;;;;;;4973203;28;20205;-71
2021/11/18 05:23:41;;;;;;;7.03;4.53;;;9.40;99.90;;;;;;4973614;28;20213;-70
2021/11/18 05:26:14;;;;;;;8.93;4.27;;;9.30;99.90;;;;;;4973640;28;20205;-70
2021/11/18 05:28:41;;;;;;;6.67;4.33;;;9.30;99.90;;;;;;4973562;28;20760;-71
2021/11/18 05:31:08;;;;;;;10.17;5.13;;;9.30;99.90;;;;;;4973505;28;20201;-72
2021/11/18 05:33:36;;;;;;;6.57;4.50;;;9.40;99.90;;;;;;4973951;28;20292;-71
2021/11/18 05:36:03;;;;;;;6.27;4.43;;;9.40;99.90;;;;;;4974138;28;20227;-71
2021/11/18 05:38:31;;;;;;;6.73;4.57;;;9.40;99.90;;;;;;4973264;28;20218;-71
2021/11/18 05:40:58;;;;;;;9.20;6.00;;;9.40;99.90;;;;;;4972750;28;20213;-71
2021/11/18 05:43:28;;;;;;;9.17;5.03;;;9.40;99.90;;;;;;4972435;28;20272;-71
2021/11/18 05:45:56;;;;;;;10.33;5.23;;;9.40;99.90;;;;;;4973589;28;20205;-71
2021/11/18 05:48:23;;;;;;;5.37;4.70;;;9.30;99.90;;;;;;4972932;28;20213;-71
2021/11/18 05:50:52;;;;;;;13.20;4.97;;;9.40;99.90;;;;;;4973574;28;20300;-71
2021/11/18 05:53:20;;;;;;;9.03;5.13;;;9.40;99.90;;;;;;4973138;28;20260;-71
2021/11/18 05:55:48;;;;;;;9.40;5.40;;;9.40;99.90;;;;;;4972890;28;20214;-71
2021/11/18 05:58:16;;;;;;;8.47;5.27;;;9.40;99.90;;;;;;4968986;28;20209;-72
2021/11/18 06:00:44;;;;;;;10.70;5.10;;;9.40;99.90;;;;;;4972776;28;20218;-71
2021/11/18 06:03:12;;;;;;;6.87;5.13;;;9.40;99.90;;;;;;4970478;28;20213;-71
2021/11/18 06:05:40;;;;;;;7.07;4.37;;;9.30;99.90;;;;;;4970709;28;20265;-72
2021/11/18 06:08:08;;;;;;;10.23;5.57;;;9.30;99.90;;;;;;4973030;28;20219;-70
2021/11/18 06:10:36;;;;;;;10.30;5.60;;;9.30;99.90;;;;;;4972427;28;20280;-68
2021/11/18 06:13:04;;;;;;;9.07;6.03;;;9.30;99.90;;;;;;4977207;28;20218;-70
2021/11/18 06:15:32;;;;;;;9.37;5.47;;;9.30;99.90;;;;;;4970509;28;20201;-72
2021/11/18 06:18:01;;;;;;;11.27;6.13;;;9.30;99.90;;;;;;4972647;28;20210;-70
2021/11/18 06:20:29;;;;;;;6.80;4.73;;;9.30;99.90;;;;;;4972003;28;20657;-71
2021/11/18 06:22:57;;;;;;;8.53;4.80;;;9.30;99.90;;;;;;4972874;28;20617;-71
2021/11/18 06:25:26;;;;;;;8.17;6.00;;;9.30;99.90;;;;;;4971884;28;20213;-71
2021/11/18 06:27:54;;;;;;;10.93;6.67;;;9.30;99.90;;;;;;4972576;28;20240;-71
2021/11/18 06:30:24;;;;;;;12.57;6.63;;;9.30;99.90;;;;;;4972171;28;20775;-71
2021/11/18 06:32:51;;;;;;;9.87;6.00;;;9.30;99.90;;;;;;4972440;28;20684;-71
2021/11/18 06:35:20;;;;;;;9.77;6.37;;;9.30;99.90;;;;;;4972487;28;20206;-71
2021/11/18 06:37:48;;;;;;;9.10;6.27;;;9.30;99.90;;;;;;4972523;28;20213;-71
2021/11/18 06:40:17;;;;;;;10.07;6.37;;;9.30;99.90;;;;;;4971733;28;20252;-71
2021/11/18 06:42:47;;;;;;;9.93;6.10;;;9.30;99.90;;;;;;4972472;28;20218;-71
2021/11/18 06:45:16;;;;;;;11.37;6.93;;;9.30;99.90;;;;;;4971738;28;20249;-72
2021/11/18 06:47:43;;;;;;;11.13;6.37;;;9.30;99.90;;;;;;4971027;28;20299;-71
2021/11/18 06:50:11;;;;;;;9.30;5.87;;;9.30;99.90;;;;;;4972305;28;20236;-71
2021/11/18 06:52:39;;;;;;;12.10;6.20;;;9.20;99.90;;;;;;4972400;28;20213;-70
2021/11/18 06:55:09;;;;;;;11.23;6.00;;;9.30;99.90;;;;;;4972130;28;20205;-71
2021/11/18 06:57:37;;;;;;;12.20;5.63;;;9.30;99.90;;;;;;4971647;28;20206;-72
2021/11/18 07:00:05;;;;;;;13.03;6.77;;;9.30;99.90;;;;;;4972381;28;20268;-71
2021/11/18 07:02:32;;;;;;;11.40;6.97;;;9.30;99.90;;;;;;4971744;28;20268;-71
2021/11/18 07:05:00;;;;;;;9.83;5.80;;;9.30;99.90;;;;;;4971743;28;20256;-72
2021/11/18 07:07:27;;;;;;;12.00;7.30;;;9.30;99.90;;;;;;4971689;28;20202;-71
2021/11/18 07:09:56;;;;;;;12.43;7.30;;;9.40;99.90;;;;;;4971598;28;20613;-71
2021/11/18 07:12:24;;;;;;;13.90;8.30;;;9.40;99.90;;;;;;4971660;28;20216;-71
2021/11/18 07:14:51;;;;;;;10.90;7.97;;;9.40;99.90;;;;;;4971814;28;20202;-71
2021/11/18 07:17:19;;;;;;;10.57;6.20;;;9.40;99.90;;;;;;4971482;28;20252;-71
2021/11/18 07:19:46;;;;;;;7.73;5.97;;;9.50;99.90;;;;;;4971995;28;20213;-71
2021/11/18 07:22:14;;;;;;;12.43;6.73;;;9.40;99.90;;;;;;4971130;28;20217;-71
2021/11/18 07:24:41;;;;;;;11.57;7.03;;;9.50;99.90;;;;;;4971295;28;20206;-71
2021/11/18 07:27:10;;;;;;;12.70;6.80;;;9.50;99.90;;;;;;4972051;28;20210;-70
2021/11/18 07:29:38;;;;;;;13.17;7.57;;;9.50;99.90;;;;;;4972188;28;20252;-70
2021/11/18 07:32:06;;;;;;;9.60;7.33;;;9.50;99.90;;;;;;4972152;28;20205;-69
2021/11/18 07:34:33;;;;;;;15.97;7.27;;;9.50;99.90;;;;;;4964112;28;20201;-69
2021/11/18 07:37:00;;;;;;;10.80;7.27;;;9.50;99.90;;;;;;4971401;28;20743;-72
2021/11/18 07:39:27;;;;;;;13.37;7.33;;;9.50;99.90;;;;;;4970917;28;20209;-72
2021/11/18 07:41:55;;;;;;;11.93;7.33;;;9.60;99.90;;;;;;4971797;28;20209;-72
2021/11/18 07:44:24;;;;;;;11.80;7.07;;;9.60;99.90;;;;;;4983743;28;20684;-72
2021/11/18 07:46:51;;;;;;;11.30;6.33;;;9.60;99.90;;;;;;4971950;28;20354;-71
2021/11/18 07:49:19;;;;;;;10.93;6.47;;;9.70;99.90;;;;;;4971088;28;20214;-71
2021/11/18 07:51:47;;;;;;;16.27;8.70;;;9.70;99.90;;;;;;4971084;28;20217;-72
2021/11/18 07:54:17;;;;;;;18.10;7.73;;;9.80;99.90;;;;;;4971513;28;20209;-71
2021/11/18 07:56:44;;;;;;;12.93;7.07;;;9.90;99.90;;;;;;4971534;28;20268;-71
2021/11/18 07:59:12;;;;;;;15.47;9.50;;;9.90;99.90;;;;;;4971610;28;20642;-71
2021/11/18 08:01:40;;;;;;;11.63;7.60;;;10.00;99.90;;;;;;4971501;28;20261;-71
2021/11/18 08:04:09;;;;;;;10.90;7.60;;;10.00;99.90;;;;;;4971907;28;20209;-71
2021/11/18 08:06:37;;;;;;;17.30;8.73;;;10.00;99.90;;;;;;4966867;28;20209;-71
2021/11/18 08:09:04;;;;;;;14.63;8.40;;;10.00;99.90;;;;;;4975842;28;20665;-71
2021/11/18 08:11:34;;;;;;;13.37;8.63;;;10.10;99.90;;;;;;4982052;28;20237;-71
2021/11/18 08:14:01;;;;;;;14.67;7.83;;;10.10;99.90;;;;;;4975034;28;20209;-71
2021/11/18 08:16:29;;;;;;;13.53;8.23;;;10.20;99.90;;;;;;4975083;28;20205;-72
2021/11/18 08:18:57;;;;;;;16.40;7.40;;;10.20;99.90;;;;;;4975023;28;20330;-72
2021/11/18 08:21:24;;;;;;;16.07;7.63;;;10.20;99.90;;;;;;4974504;28;20288;-72
2021/11/18 08:23:52;;;;;;;13.33;8.23;;;10.20;99.90;;;;;;4974413;28;20664;-72
2021/11/18 08:26:20;;;;;;;14.33;8.57;;;10.30;99.90;;;;;;4974762;28;20569;-73
2021/11/18 08:28:47;;;;;;;12.93;8.17;;;10.30;99.90;;;;;;4974230;28;20276;-73
2021/11/18 08:31:16;;;;;;;14.77;8.70;;;10.40;99.90;;;;;;4974692;28;20237;-73
2021/11/18 08:33:43;;;;;;;11.57;7.30;;;10.50;99.90;;;;;;4974746;28;20217;-73
2021/11/18 08:36:12;;;;;;;41.30;10.13;;;10.60;99.90;;;;;;4974725;28;20206;-73
2021/11/18 08:38:40;;;;;;;16.27;8.57;;;10.60;99.90;;;;;;4974942;28;20669;-72
2021/11/18 08:41:10;;;;;;;15.90;9.77;;;10.60;99.90;;;;;;4974658;28;20635;-73
2021/11/18 08:43:39;;;;;;;17.17;8.17;;;10.70;99.90;;;;;;4974368;28;20272;-72
2021/11/18 08:46:09;;;;;;;11.53;7.27;;;10.80;99.90;;;;;;4974786;28;20252;-72
2021/11/18 08:48:36;;;;;;;10.43;7.67;;;10.80;99.90;;;;;;4973406;28;20217;-72
2021/11/18 08:51:03;;;;;;;13.63;7.70;;;10.90;99.90;;;;;;4974138;28;20308;-73
2021/11/18 08:53:36;;;;;;;13.60;7.20;;;10.90;99.90;;;;;;4974031;28;20618;-72
2021/11/18 08:56:03;;;;;;;12.03;7.33;;;11.00;99.90;;;;;;4974654;28;20209;-73
2021/11/18 08:58:35;;;;;;;12.47;8.13;;;10.90;99.90;;;;;;4974039;28;20210;-71
2021/11/18 09:01:10;;;;;;;13.17;7.77;;;11.10;99.90;;;;;;4974117;28;20218;-71
2021/11/18 09:03:37;;;;;;;14.83;8.10;;;11.40;99.90;;;;;;4973874;28;20665;-71
2021/11/18 09:06:08;;;;;;;9.83;7.47;;;11.40;99.90;;;;;;4974115;28;20213;-71
2021/11/18 09:08:37;;;;;;;11.20;7.20;;;11.50;99.90;;;;;;4973747;28;20281;-71
2021/11/18 09:11:07;;;;;;;10.83;6.87;;;11.60;99.90;;;;;;4974296;28;20319;-72
2021/11/18 09:13:34;;;;;;;13.07;7.23;;;11.60;99.90;;;;;;4973453;28;20330;-73
2021/11/18 09:16:02;;;;;;;12.87;7.13;;;11.70;99.90;;;;;;4974038;28;20209;-70
2021/11/18 09:18:29;;;;;;;10.20;6.67;;;11.90;99.90;;;;;;4972316;28;20313;-76
2021/11/18 09:21:00;;;;;;;17.23;8.93;;;11.90;99.90;;;;;;4973572;28;20685;-72
2021/11/18 09:23:31;;;;;;;10.67;6.57;;;11.90;99.90;;;;;;4973733;28;20253;-71
2021/11/18 09:26:00;;;;;;;9.23;6.50;;;12.00;99.90;;;;;;4973651;28;20206;-70
2021/11/18 09:28:27;;;;;;;11.20;7.40;;;12.10;99.90;;;;;;4973494;28;20578;-72
2021/11/18 09:30:57;;;;;;;12.10;7.43;;;12.20;99.90;;;;;;4971206;28;20264;-73
2021/11/18 09:33:24;;;;;;;11.35;7.68;;;12.30;99.90;;;;;;4972266;28;20202;-72
2021/11/18 09:35:54;;;;;;;7.70;5.60;;;12.20;99.90;;;;;;4971418;28;20202;-71
2021/11/18 09:38:24;;;;;;;9.75;5.90;;;12.20;99.90;;;;;;4972214;28;20257;-72
2021/11/18 09:40:54;;;;;;;9.57;6.35;;;12.20;99.90;;;;;;4973504;28;20217;-72
2021/11/18 09:44:11;;;;;;;7.88;5.95;;;12.20;99.90;;;;;;4972860;28;20205;-72
2021/11/18 09:47:05;;;;;;;11.48;5.13;;;12.70;99.90;;;;;;4893288;29;20213;-73
2021/11/18 09:49:49;;;;;;;6.93;4.75;;;12.80;99.90;;;;;;4955096;28;20209;-72
2021/11/18 09:52:25;;;;;;;6.22;4.50;;;12.70;99.90;;;;;;4965237;28;20641;-72
2021/11/18 09:55:01;;;;;;;7.50;4.53;;;12.70;99.90;;;;;;4973325;28;20209;-72
2021/11/18 09:57:41;;;;;;;7.90;4.97;;;12.70;99.90;;;;;;4972955;28;20209;-72
2021/11/18 10:00:14;;;;;;;7.50;4.72;;;12.80;99.90;;;;;;4973469;28;20209;-72
2021/11/18 10:02:56;;;;;;;13.82;4.50;;;12.80;99.90;;;;;;4971814;28;20201;-72
2021/11/18 10:05:27;;;;;;;11.00;5.43;;;13.00;99.90;;;;;;4972242;28;20740;-73
2021/11/18 10:07:57;;;;;;;7.72;5.00;;;13.70;99.90;;;;;;4972250;28;20268;-73
2021/11/18 10:10:31;;;;;;;8.88;5.47;;;13.90;99.90;;;;;;4972142;28;20787;-72
2021/11/18 10:13:35;;;;;;;8.43;5.38;;;13.70;99.90;;;;;;4969787;28;20202;-72
2021/11/18 10:16:06;;;;;;;5.68;3.83;;;13.50;99.90;;;;;;4960733;28;20205;-72
2021/11/18 10:18:38;;;;;;;9.48;6.25;;;13.60;99.90;;;;;;4972377;28;20249;-73
2021/11/18 10:21:16;;;;;;;7.40;4.78;;;13.50;99.90;;;;;;4972942;28;20214;-73
2021/11/18 10:23:45;;;;;;;7.35;4.93;;;13.50;99.90;;;;;;4972792;28;20209;-73
2021/11/18 10:26:18;;;;;;;11.90;6.10;;;13.30;99.90;;;;;;4972992;28;20209;-73
2021/11/18 10:28:50;;;;;;;9.10;4.53;;;13.10;99.90;;;;;;4972715;28;20210;-74
2021/11/18 10:31:22;;;;;;;7.72;4.38;;;13.00;99.90;;;;;;4971737;28;20225;-73
2021/11/18 10:33:56;;;;;;;8.27;4.88;;;12.90;99.90;;;;;;4972301;28;20260;-74
2021/11/18 10:36:53;;;;;;;7.70;4.55;;;12.90;99.90;;;;;;4962869;28;20209;-74
2021/11/18 10:39:31;;;;;;;7.40;4.90;;;12.70;99.90;;;;;;4969961;28;20218;-73
2021/11/18 10:42:01;;;;;;;9.02;4.38;;;12.70;99.90;;;;;;4970922;28;20578;-72
2021/11/18 10:44:31;;;;;;;7.45;4.60;;;12.80;99.90;;;;;;4971888;28;20630;-72
2021/11/18 10:47:04;;;;;;;7.32;4.70;;;12.90;99.90;;;;;;4971215;28;20221;-73
2021/11/18 10:49:41;;;;;;;9.18;4.53;;;13.00;99.90;;;;;;4970380;28;20213;-73
2021/11/18 10:52:22;;;;;;;9.68;5.60;;;13.00;99.90;;;;;;4968269;28;20618;-72
2021/11/18 10:54:51;;;;;;;7.07;4.30;;;13.00;99.90;;;;;;4972034;28;20624;-72
2021/11/18 10:57:21;;;;;;;7.28;4.53;;;13.00;99.90;;;;;;4971723;28;20205;-72
2021/11/18 10:59:51;;;;;;;6.55;3.88;;;13.00;99.90;;;;;;4971913;28;20205;-72
2021/11/18 11:02:23;;;;;;;5.43;3.42;;;13.20;99.90;;;;;;4971097;28;20206;-73
2021/11/18 11:04:55;;;;;;;8.23;4.60;;;13.10;99.90;;;;;;4971855;28;20630;-73
2021/11/18 11:07:37;;;;;;;6.40;4.10;;;13.10;99.90;;;;;;4971747;28;20615;-73
2021/11/18 11:10:08;;;;;;;6.95;3.75;;;13.30;99.90;;;;;;4971733;28;20205;-73
2021/11/18 11:12:40;;;;;;;6.85;3.53;;;13.40;99.90;;;;;;4972278;28;20263;-73
2021/11/18 11:15:30;;;;;;;5.57;3.58;;;13.60;99.90;;;;;;4972084;28;20201;-72
2021/11/18 11:18:17;;;;;;;6.97;3.80;;;14.10;99.90;;;;;;4966414;28;20268;-73
2021/11/18 11:21:12;;;;;;;5.55;3.10;;;14.50;99.90;;;;;;4971783;28;20217;-76
2021/11/18 11:23:50;;;;;;;7.40;3.30;;;14.70;99.90;;;;;;4971771;28;20677;-72
2021/11/18 11:26:56;;;;;;;6.20;3.60;;;14.70;99.90;;;;;;4971381;28;20632;-72
2021/11/18 11:29:37;;;;;;;3.50;2.30;;;14.20;99.90;;;;;;4970786;28;20205;-74
2021/11/18 11:32:14;;;;;;;7.20;2.80;;;13.80;99.90;;;;;;4971473;28;20233;-72
2021/11/18 11:35:05;;;;;;;4.00;2.33;;;13.20;99.90;;;;;;4963690;28;20236;-74
2021/11/18 11:38:02;;;;;;;6.50;3.75;;;13.00;99.90;;;;;;4962823;28;20676;-74
2021/11/18 11:40:36;;;;;;;3.55;2.53;;;13.00;99.90;;;;;;4970945;28;20201;-73
2021/11/18 11:43:30;;;;;;;4.57;3.15;;;13.20;99.90;;;;;;4970847;28;20217;-74
2021/11/18 11:46:07;;;;;;;2.78;2.33;;;13.30;99.90;;;;;;4971716;28;20209;-72
2021/11/18 11:49:02;;;;;;;3.38;1.88;;;13.50;99.90;;;;;;4970916;28;20685;-75
2021/11/18 11:51:51;;;;;;;3.67;2.90;;;13.50;99.90;;;;;;4946214;28;20811;-74
2021/11/18 11:54:48;;;;;;;4.28;2.45;;;13.30;99.90;;;;;;4971454;28;20213;-73
2021/11/18 11:57:27;;;;;;;5.90;3.20;;;13.20;99.90;;;;;;4957094;28;20202;-74
2021/11/18 12:00:04;;;;;;;7.30;2.70;;;13.30;99.90;;;;;;4971409;28;20224;-72
2021/11/18 12:02:36;;;;;;;5.80;3.13;;;13.30;99.90;;;;;;4971358;28;20213;-76
2021/11/18 12:05:07;;;;;;;7.25;3.13;;;13.40;99.90;;;;;;4971359;28;20209;-75
2021/11/18 12:07:40;;;;;;;7.82;3.08;;;13.10;99.90;;;;;;4970759;28;20210;-73
2021/11/18 12:10:23;;;;;;;7.25;4.05;;;13.20;99.90;;;;;;4971806;28;20270;-76
2021/11/18 12:12:54;;;;;;;6.28;2.72;;;13.40;99.90;;;;;;4971124;28;20276;-72
2021/11/18 12:15:23;;;;;;;7.22;2.88;;;13.40;99.90;;;;;;4971108;28;20276;-73
2021/11/18 12:17:53;;;;;;;6.97;3.50;;;13.50;99.90;;;;;;4971456;28;20560;-72
2021/11/18 12:20:22;;;;;;;4.57;3.22;;;13.50;99.90;;;;;;4970823;28;20214;-74
2021/11/18 12:22:55;;;;;;;4.22;2.83;;;13.50;99.90;;;;;;4971439;28;20264;-74
2021/11/18 12:25:39;;;;;;;15.63;4.65;;;13.50;99.90;;;;;;4971069;28;20214;-73
2021/11/18 12:28:24;;;;;;;7.13;3.25;;;13.50;99.90;;;;;;4969304;28;20197;-73
2021/11/18 12:31:07;;;;;;;4.32;3.30;;;13.50;99.90;;;;;;4970766;28;20244;-73
2021/11/18 12:33:43;;;;;;;12.70;4.03;;;13.10;99.90;;;;;;4970746;28;20696;-77
2021/11/18 12:36:13;;;;;;;5.53;3.15;;;13.00;99.90;;;;;;4970805;28;20284;-74
2021/11/18 12:38:43;;;;;;;6.63;2.83;;;12.80;99.90;;;;;;4971237;28;20677;-73
2021/11/18 12:41:29;;;;;;;12.95;2.83;;;12.80;99.90;;;;;;4969286;28;20214;-73
2021/11/18 12:44:09;;;;;;;4.35;2.55;;;13.20;99.90;;;;;;4939485;28;20221;-76
2021/11/18 12:46:54;;;;;;;3.72;2.25;;;13.30;99.90;;;;;;4971142;28;20276;-73
2021/11/18 12:49:23;;;;;;;4.03;1.75;;;13.30;99.90;;;;;;4970643;28;20212;-73
2021/11/18 12:52:13;;;;;;;3.20;2.20;;;13.50;99.90;;;;;;4971117;28;20300;-74
2021/11/18 12:54:46;;;;;;;3.45;2.05;;;13.80;99.90;;;;;;4974899;28;20292;-72
2021/11/18 12:57:32;;;;;;;3.05;2.00;;;14.00;99.90;;;;;;4969670;28;20700;-74
2021/11/18 13:00:06;;;;;;;5.03;2.45;;;14.00;99.90;;;;;;4974137;28;20740;-73
2021/11/18 13:02:55;;;;;;;5.15;1.83;;;14.00;99.90;;;;;;4973968;28;20610;-76
2021/11/18 13:05:45;;;;;;;6.32;1.63;;;13.90;99.90;;;;;;4973681;28;20206;-76
2021/11/18 13:08:46;;;;;;;7.20;2.33;;;13.80;99.90;;;;;;4974367;28;20646;-73
2021/11/18 13:11:36;;;;;;;4.85;1.73;;;13.70;99.90;;;;;;4960906;28;20573;-73